Aviation Digital Data Service (ADDS)

Output produced by METARs form (2055 UTC 26 May 2017)
found at http://www.aviationweather.gov/adds/metars/
 
KALN 261950Z 18009KT 10SM OVC042 26/18 A2974
KALN 261847Z 17012KT 10SM SCT030 27/18 A2973
KALN 261748Z 13007KT 10SM SKC 26/18 A2975
KALN 261648Z 20012KT 10SM FEW150 25/17 A2977
KALN 261550Z 19012KT 10SM FEW200 23/17 A2975